sensor_id;sensor_type;location;lat;lon;timestamp;pressure;altitude;pressure_sealevel;temperature;humidity
12178;BME280;6152;48.728;9.256;2023-05-22T00:01:36;96678.22;;;14.97;100.00
12178;BME280;6152;48.728;9.256;2023-05-22T00:04:02;96680.00;;;14.97;100.00
12178;BME280;6152;48.728;9.256;2023-05-22T00:06:29;96688.97;;;14.94;100.00
12178;BME280;6152;48.728;9.256;2023-05-22T00:08:55;96693.63;;;14.91;100.00
12178;BME280;6152;48.728;9.256;2023-05-22T00:11:23;96695.56;;;14.89;100.00
12178;BME280;6152;48.728;9.256;2023-05-22T00:13:49;96683.81;;;14.83;100.00
12178;BME280;6152;48.728;9.256;2023-05-22T00:16:15;96684.22;;;14.79;100.00
12178;BME280;6152;48.728;9.256;2023-05-22T00:18:41;96685.28;;;14.76;100.00
12178;BME280;6152;48.728;9.256;2023-05-22T00:21:08;96679.47;;;14.73;100.00
12178;BME280;6152;48.728;9.256;2023-05-22T00:23:35;96681.66;;;14.68;100.00
12178;BME280;6152;48.728;9.256;2023-05-22T00:26:01;96679.41;;;14.63;100.00
12178;BME280;6152;48.728;9.256;2023-05-22T00:28:28;96673.59;;;14.59;100.00
12178;BME280;6152;48.728;9.256;2023-05-22T00:30:54;96670.41;;;14.56;100.00
12178;BME280;6152;48.728;9.256;2023-05-22T00:33:20;96668.03;;;14.53;100.00
12178;BME280;6152;48.728;9.256;2023-05-22T00:35:46;96666.63;;;14.49;100.00
12178;BME280;6152;48.728;9.256;2023-05-22T00:38:30;96672.13;;;14.46;100.00
12178;BME280;6152;48.728;9.256;2023-05-22T00:41:00;96669.78;;;14.43;100.00
12178;BME280;6152;48.728;9.256;2023-05-22T00:43:27;96668.25;;;14.40;100.00
12178;BME280;6152;48.728;9.256;2023-05-22T00:45:53;96673.47;;;14.40;100.00
12178;BME280;6152;48.728;9.256;2023-05-22T00:48:21;96676.22;;;14.39;100.00
12178;BME280;6152;48.728;9.256;2023-05-22T00:50:49;96669.44;;;14.36;100.00
12178;BME280;6152;48.728;9.256;2023-05-22T00:53:15;96667.06;;;14.33;100.00
12178;BME280;6152;48.728;9.256;2023-05-22T00:55:44;96671.72;;;14.30;100.00
12178;BME280;6152;48.728;9.256;2023-05-22T00:58:16;96676.38;;;14.26;100.00
12178;BME280;6152;48.728;9.256;2023-05-22T01:00:43;96679.25;;;14.23;100.00
12178;BME280;6152;48.728;9.256;2023-05-22T01:03:11;96677.81;;;14.19;100.00
12178;BME280;6152;48.728;9.256;2023-05-22T01:05:39;96680.44;;;14.19;100.00
12178;BME280;6152;48.728;9.256;2023-05-22T01:08:07;96689.25;;;14.18;100.00
12178;BME280;6152;48.728;9.256;2023-05-22T01:10:34;96685.09;;;14.15;100.00
12178;BME280;6152;48.728;9.256;2023-05-22T01:13:28;96681.06;;;14.11;100.00
12178;BME280;6152;48.728;9.256;2023-05-22T01:16:40;96682.25;;;14.07;100.00
12178;BME280;6152;48.728;9.256;2023-05-22T01:33:13;96696.63;;;13.81;100.00
12178;BME280;6152;48.728;9.256;2023-05-22T01:35:40;96701.28;;;13.78;100.00
12178;BME280;6152;48.728;9.256;2023-05-22T01:38:08;96692.84;;;13.74;100.00
12178;BME280;6152;48.728;9.256;2023-05-22T01:40:36;96692.94;;;13.73;100.00
12178;BME280;6152;48.728;9.256;2023-05-22T01:43:02;96697.25;;;13.74;100.00
12178;BME280;6152;48.728;9.256;2023-05-22T01:45:29;96697.59;;;13.69;100.00
12178;BME280;6152;48.728;9.256;2023-05-22T01:47:57;96700.34;;;13.68;100.00
12178;BME280;6152;48.728;9.256;2023-05-22T01:50:23;96696.91;;;13.67;100.00
12178;BME280;6152;48.728;9.256;2023-05-22T01:52:54;96697.97;;;13.64;100.00
12178;BME280;6152;48.728;9.256;2023-05-22T02:00:39;96704.88;;;13.54;100.00
12178;BME280;6152;48.728;9.256;2023-05-22T02:03:12;96712.00;;;13.52;100.00
12178;BME280;6152;48.728;9.256;2023-05-22T02:05:40;96705.25;;;13.50;100.00
12178;BME280;6152;48.728;9.256;2023-05-22T02:08:07;96695.97;;;13.46;100.00
12178;BME280;6152;48.728;9.256;2023-05-22T02:10:36;96707.50;;;13.43;100.00
12178;BME280;6152;48.728;9.256;2023-05-22T02:13:03;96701.44;;;13.43;100.00
12178;BME280;6152;48.728;9.256;2023-05-22T02:15:30;96707.75;;;13.40;100.00
12178;BME280;6152;48.728;9.256;2023-05-22T02:17:59;96705.25;;;13.39;100.00
12178;BME280;6152;48.728;9.256;2023-05-22T02:20:25;96708.00;;;13.37;100.00
12178;BME280;6152;48.728;9.256;2023-05-22T02:22:51;96698.25;;;13.39;100.00
12178;BME280;6152;48.728;9.256;2023-05-22T02:25:17;96705.25;;;13.39;100.00
12178;BME280;6152;48.728;9.256;2023-05-22T02:27:45;96702.78;;;13.37;100.00
12178;BME280;6152;48.728;9.256;2023-05-22T02:30:12;96704.66;;;13.35;100.00
12178;BME280;6152;48.728;9.256;2023-05-22T02:32:39;96706.31;;;13.36;100.00
12178;BME280;6152;48.728;9.256;2023-05-22T02:35:06;96701.69;;;13.40;100.00
12178;BME280;6152;48.728;9.256;2023-05-22T02:37:33;96705.00;;;13.42;100.00
12178;BME280;6152;48.728;9.256;2023-05-22T02:39:59;96702.28;;;13.43;100.00
12178;BME280;6152;48.728;9.256;2023-05-22T02:42:25;96695.28;;;13.44;100.00
12178;BME280;6152;48.728;9.256;2023-05-22T02:44:51;96689.81;;;13.47;100.00
12178;BME280;6152;48.728;9.256;2023-05-22T02:47:17;96693.00;;;13.50;100.00
12178;BME280;6152;48.728;9.256;2023-05-22T02:49:44;96691.81;;;13.54;100.00
12178;BME280;6152;48.728;9.256;2023-05-22T02:52:11;96689.78;;;13.58;100.00
12178;BME280;6152;48.728;9.256;2023-05-22T02:54:37;96697.50;;;13.59;100.00
12178;BME280;6152;48.728;9.256;2023-05-22T02:57:03;96702.03;;;13.69;100.00
12178;BME280;6152;48.728;9.256;2023-05-22T02:59:29;96700.78;;;13.73;100.00
12178;BME280;6152;48.728;9.256;2023-05-22T03:01:56;96692.94;;;13.73;100.00
12178;BME280;6152;48.728;9.256;2023-05-22T03:04:22;96695.13;;;13.68;100.00
12178;BME280;6152;48.728;9.256;2023-05-22T03:06:49;96700.84;;;13.61;100.00
12178;BME280;6152;48.728;9.256;2023-05-22T03:09:15;96695.38;;;13.53;100.00
12178;BME280;6152;48.728;9.256;2023-05-22T03:11:41;96705.59;;;13.45;100.00
12178;BME280;6152;48.728;9.256;2023-05-22T03:14:07;96701.69;;;13.40;100.00
12178;BME280;6152;48.728;9.256;2023-05-22T03:16:33;96700.38;;;13.34;100.00
12178;BME280;6152;48.728;9.256;2023-05-22T03:19:10;96704.91;;;13.43;100.00
12178;BME280;6152;48.728;9.256;2023-05-22T03:21:36;96704.53;;;13.48;100.00
12178;BME280;6152;48.728;9.256;2023-05-22T03:24:03;96703.72;;;13.47;100.00
12178;BME280;6152;48.728;9.256;2023-05-22T03:26:29;96710.81;;;13.45;100.00
12178;BME280;6152;48.728;9.256;2023-05-22T03:28:56;96714.41;;;13.44;100.00
12178;BME280;6152;48.728;9.256;2023-05-22T03:31:24;96725.31;;;13.38;100.00
12178;BME280;6152;48.728;9.256;2023-05-22T03:33:50;96730.09;;;13.33;100.00
12178;BME280;6152;48.728;9.256;2023-05-22T03:36:18;96733.66;;;13.32;100.00
12178;BME280;6152;48.728;9.256;2023-05-22T03:38:46;96739.94;;;13.30;100.00
12178;BME280;6152;48.728;9.256;2023-05-22T03:41:12;96736.97;;;13.23;100.00
12178;BME280;6152;48.728;9.256;2023-05-22T03:43:41;96734.13;;;13.15;100.00
12178;BME280;6152;48.728;9.256;2023-05-22T03:46:07;96735.78;;;13.16;100.00
12178;BME280;6152;48.728;9.256;2023-05-22T03:48:35;96723.44;;;13.18;100.00
12178;BME280;6152;48.728;9.256;2023-05-22T03:51:01;96732.00;;;13.20;100.00
12178;BME280;6152;48.728;9.256;2023-05-22T03:53:28;96733.28;;;13.26;100.00
12178;BME280;6152;48.728;9.256;2023-05-22T03:55:55;96729.59;;;13.28;100.00
12178;BME280;6152;48.728;9.256;2023-05-22T03:58:23;96728.41;;;13.32;100.00
12178;BME280;6152;48.728;9.256;2023-05-22T04:00:55;96724.47;;;13.38;100.00
12178;BME280;6152;48.728;9.256;2023-05-22T04:03:26;96726.75;;;13.42;100.00
12178;BME280;6152;48.728;9.256;2023-05-22T04:05:52;96737.22;;;13.42;100.00
12178;BME280;6152;48.728;9.256;2023-05-22T04:08:19;96736.25;;;13.43;100.00
12178;BME280;6152;48.728;9.256;2023-05-22T04:10:45;96734.25;;;13.47;100.00
12178;BME280;6152;48.728;9.256;2023-05-22T04:13:12;96735.66;;;13.51;100.00
12178;BME280;6152;48.728;9.256;2023-05-22T04:15:38;96737.66;;;13.58;100.00
12178;BME280;6152;48.728;9.256;2023-05-22T04:18:06;96733.16;;;13.60;100.00
12178;BME280;6152;48.728;9.256;2023-05-22T04:20:33;96735.63;;;13.62;100.00
12178;BME280;6152;48.728;9.256;2023-05-22T04:22:59;96742.19;;;13.68;100.00
12178;BME280;6152;48.728;9.256;2023-05-22T04:25:26;96742.88;;;13.70;100.00
12178;BME280;6152;48.728;9.256;2023-05-22T04:27:52;96745.25;;;13.73;100.00
12178;BME280;6152;48.728;9.256;2023-05-22T04:30:18;96736.13;;;13.78;100.00
12178;BME280;6152;48.728;9.256;2023-05-22T04:32:44;96732.66;;;13.78;100.00
12178;BME280;6152;48.728;9.256;2023-05-22T04:35:10;96746.19;;;13.83;100.00
12178;BME280;6152;48.728;9.256;2023-05-22T04:37:37;96733.84;;;13.85;100.00
12178;BME280;6152;48.728;9.256;2023-05-22T04:40:09;96735.25;;;13.89;100.00
12178;BME280;6152;48.728;9.256;2023-05-22T04:42:37;96737.50;;;13.93;100.00
12178;BME280;6152;48.728;9.256;2023-05-22T04:45:04;96750.22;;;13.98;100.00
12178;BME280;6152;48.728;9.256;2023-05-22T04:47:30;96744.47;;;14.04;100.00
12178;BME280;6152;48.728;9.256;2023-05-22T04:50:00;96747.31;;;14.12;100.00
12178;BME280;6152;48.728;9.256;2023-05-22T04:52:27;96745.97;;;14.17;100.00
12178;BME280;6152;48.728;9.256;2023-05-22T04:54:53;96740.91;;;14.16;100.00
12178;BME280;6152;48.728;9.256;2023-05-22T04:57:20;96737.19;;;14.18;100.00
12178;BME280;6152;48.728;9.256;2023-05-22T04:59:47;96751.34;;;14.27;100.00
12178;BME280;6152;48.728;9.256;2023-05-22T05:02:13;96749.41;;;14.29;100.00
12178;BME280;6152;48.728;9.256;2023-05-22T05:04:40;96754.91;;;14.37;100.00
12178;BME280;6152;48.728;9.256;2023-05-22T05:07:06;96753.19;;;14.47;100.00
12178;BME280;6152;48.728;9.256;2023-05-22T05:09:32;96748.53;;;14.51;100.00
12178;BME280;6152;48.728;9.256;2023-05-22T05:11:58;96759.59;;;14.54;100.00
12178;BME280;6152;48.728;9.256;2023-05-22T05:14:25;96753.38;;;14.55;100.00
12178;BME280;6152;48.728;9.256;2023-05-22T05:16:51;96754.34;;;14.54;100.00
12178;BME280;6152;48.728;9.256;2023-05-22T05:19:18;96758.25;;;14.60;100.00
12178;BME280;6152;48.728;9.256;2023-05-22T05:21:46;96758.34;;;14.58;100.00
12178;BME280;6152;48.728;9.256;2023-05-22T05:24:15;96757.16;;;14.62;100.00
12178;BME280;6152;48.728;9.256;2023-05-22T05:26:41;96745.47;;;14.66;100.00
12178;BME280;6152;48.728;9.256;2023-05-22T05:29:08;96749.34;;;14.72;100.00
12178;BME280;6152;48.728;9.256;2023-05-22T05:31:34;96748.47;;;14.83;100.00
12178;BME280;6152;48.728;9.256;2023-05-22T05:34:00;96744.94;;;14.93;100.00
12178;BME280;6152;48.728;9.256;2023-05-22T05:36:26;96752.16;;;15.01;100.00
12178;BME280;6152;48.728;9.256;2023-05-22T05:38:53;96758.03;;;15.14;100.00
12178;BME280;6152;48.728;9.256;2023-05-22T05:41:19;96754.25;;;15.28;100.00
12178;BME280;6152;48.728;9.256;2023-05-22T05:43:46;96750.44;;;15.41;100.00
12178;BME280;6152;48.728;9.256;2023-05-22T05:46:12;96753.16;;;15.51;100.00
12178;BME280;6152;48.728;9.256;2023-05-22T05:48:39;96754.97;;;15.60;100.00
12178;BME280;6152;48.728;9.256;2023-05-22T05:51:05;96760.25;;;15.70;100.00
12178;BME280;6152;48.728;9.256;2023-05-22T05:53:31;96755.88;;;15.80;100.00
12178;BME280;6152;48.728;9.256;2023-05-22T05:55:57;96759.63;;;15.87;100.00
12178;BME280;6152;48.728;9.256;2023-05-22T05:58:23;96756.22;;;15.96;100.00
12178;BME280;6152;48.728;9.256;2023-05-22T06:00:49;96760.09;;;16.01;100.00
12178;BME280;6152;48.728;9.256;2023-05-22T06:03:16;96763.72;;;16.10;100.00
12178;BME280;6152;48.728;9.256;2023-05-22T06:05:42;96760.25;;;16.19;100.00
12178;BME280;6152;48.728;9.256;2023-05-22T06:08:10;96773.38;;;16.19;100.00
12178;BME280;6152;48.728;9.256;2023-05-22T06:10:38;96773.66;;;16.16;100.00
12178;BME280;6152;48.728;9.256;2023-05-22T06:13:04;96773.09;;;16.22;100.00
12178;BME280;6152;48.728;9.256;2023-05-22T06:15:31;96773.66;;;16.35;100.00
12178;BME280;6152;48.728;9.256;2023-05-22T06:17:57;96774.78;;;16.42;100.00
12178;BME280;6152;48.728;9.256;2023-05-22T06:20:24;96775.63;;;16.52;100.00
12178;BME280;6152;48.728;9.256;2023-05-22T06:22:50;96774.56;;;16.64;100.00
12178;BME280;6152;48.728;9.256;2023-05-22T06:25:16;96776.91;;;16.58;100.00
12178;BME280;6152;48.728;9.256;2023-05-22T06:27:42;96775.41;;;16.65;100.00
12178;BME280;6152;48.728;9.256;2023-05-22T06:30:09;96777.03;;;16.76;100.00
12178;BME280;6152;48.728;9.256;2023-05-22T06:32:35;96783.13;;;16.86;100.00
12178;BME280;6152;48.728;9.256;2023-05-22T06:35:01;96779.81;;;16.84;100.00
12178;BME280;6152;48.728;9.256;2023-05-22T06:37:28;96782.28;;;16.76;100.00
12178;BME280;6152;48.728;9.256;2023-05-22T06:39:56;96783.13;;;16.86;100.00
12178;BME280;6152;48.728;9.256;2023-05-22T06:42:22;96783.13;;;16.95;100.00
12178;BME280;6152;48.728;9.256;2023-05-22T06:44:48;96789.75;;;17.09;100.00
12178;BME280;6152;48.728;9.256;2023-05-22T06:47:14;96785.59;;;17.16;100.00
12178;BME280;6152;48.728;9.256;2023-05-22T06:49:40;96789.84;;;17.17;100.00
12178;BME280;6152;48.728;9.256;2023-05-22T06:52:06;96789.97;;;17.25;100.00
12178;BME280;6152;48.728;9.256;2023-05-22T06:54:32;96783.44;;;17.39;100.00
12178;BME280;6152;48.728;9.256;2023-05-22T06:56:58;96789.94;;;17.44;100.00
12178;BME280;6152;48.728;9.256;2023-05-22T06:59:24;96793.94;;;17.48;100.00
12178;BME280;6152;48.728;9.256;2023-05-22T07:01:50;96783.56;;;17.56;100.00
12178;BME280;6152;48.728;9.256;2023-05-22T07:04:17;96784.84;;;17.80;100.00
12178;BME280;6152;48.728;9.256;2023-05-22T07:06:43;96781.94;;;18.10;100.00
12178;BME280;6152;48.728;9.256;2023-05-22T07:09:10;96780.84;;;18.30;100.00
12178;BME280;6152;48.728;9.256;2023-05-22T07:11:37;96791.53;;;18.46;100.00
12178;BME280;6152;48.728;9.256;2023-05-22T07:14:03;96781.88;;;18.64;100.00
12178;BME280;6152;48.728;9.256;2023-05-22T07:16:29;96792.88;;;18.95;100.00
12178;BME280;6152;48.728;9.256;2023-05-22T07:18:56;96787.56;;;19.13;100.00
12178;BME280;6152;48.728;9.256;2023-05-22T07:21:22;96789.69;;;19.35;100.00
12178;BME280;6152;48.728;9.256;2023-05-22T07:23:49;96790.56;;;19.70;100.00
12178;BME280;6152;48.728;9.256;2023-05-22T07:26:15;96795.38;;;20.08;100.00
12178;BME280;6152;48.728;9.256;2023-05-22T07:28:41;96788.09;;;20.44;100.00
12178;BME280;6152;48.728;9.256;2023-05-22T07:31:08;96794.78;;;20.88;100.00
12178;BME280;6152;48.728;9.256;2023-05-22T07:33:34;96794.63;;;21.14;100.00
12178;BME280;6152;48.728;9.256;2023-05-22T07:36:00;96793.78;;;21.46;100.00
12178;BME280;6152;48.728;9.256;2023-05-22T07:38:26;96800.22;;;21.67;100.00
12178;BME280;6152;48.728;9.256;2023-05-22T07:40:52;96799.47;;;21.98;100.00
12178;BME280;6152;48.728;9.256;2023-05-22T07:43:18;96798.09;;;22.10;100.00
12178;BME280;6152;48.728;9.256;2023-05-22T07:45:44;96792.53;;;22.67;100.00
12178;BME280;6152;48.728;9.256;2023-05-22T07:48:10;96790.59;;;23.06;100.00
12178;BME280;6152;48.728;9.256;2023-05-22T07:50:37;96784.00;;;23.39;100.00
12178;BME280;6152;48.728;9.256;2023-05-22T07:53:03;96783.59;;;23.50;100.00
12178;BME280;6152;48.728;9.256;2023-05-22T07:55:30;96782.41;;;23.97;100.00
12178;BME280;6152;48.728;9.256;2023-05-22T07:57:56;96785.09;;;24.26;100.00
12178;BME280;6152;48.728;9.256;2023-05-22T08:00:22;96787.56;;;24.63;100.00
12178;BME280;6152;48.728;9.256;2023-05-22T08:02:49;96787.84;;;24.90;100.00
12178;BME280;6152;48.728;9.256;2023-05-22T08:05:15;96783.91;;;25.07;96.71
12178;BME280;6152;48.728;9.256;2023-05-22T08:07:42;96776.41;;;25.17;95.79
12178;BME280;6152;48.728;9.256;2023-05-22T08:10:13;96785.28;;;25.24;93.90
12178;BME280;6152;48.728;9.256;2023-05-22T08:12:48;96784.13;;;24.84;92.89
12178;BME280;6152;48.728;9.256;2023-05-22T08:15:23;96785.59;;;24.36;99.60
12178;BME280;6152;48.728;9.256;2023-05-22T08:17:49;96787.53;;;24.28;100.00
12178;BME280;6152;48.728;9.256;2023-05-22T08:20:15;96776.44;;;24.39;100.00
12178;BME280;6152;48.728;9.256;2023-05-22T08:22:41;96787.94;;;24.60;100.00
12178;BME280;6152;48.728;9.256;2023-05-22T08:25:07;96783.34;;;24.90;97.29
12178;BME280;6152;48.728;9.256;2023-05-22T08:27:34;96784.78;;;25.14;97.87
12178;BME280;6152;48.728;9.256;2023-05-22T08:30:01;96784.50;;;25.79;90.60
12178;BME280;6152;48.728;9.256;2023-05-22T08:32:29;96783.31;;;25.82;85.04
12178;BME280;6152;48.728;9.256;2023-05-22T08:34:55;96778.50;;;26.46;79.49
12178;BME280;6152;48.728;9.256;2023-05-22T08:37:21;96775.78;;;26.93;75.37
12178;BME280;6152;48.728;9.256;2023-05-22T08:39:47;96777.66;;;27.13;73.55
12178;BME280;6152;48.728;9.256;2023-05-22T08:42:13;96778.72;;;27.57;71.63
12178;BME280;6152;48.728;9.256;2023-05-22T08:44:40;96779.97;;;27.62;68.06
12178;BME280;6152;48.728;9.256;2023-05-22T08:47:06;96775.19;;;27.44;68.33
12178;BME280;6152;48.728;9.256;2023-05-22T08:49:39;96772.44;;;26.72;67.71
12178;BME280;6152;48.728;9.256;2023-05-22T08:52:09;96773.56;;;26.36;72.87
12178;BME280;6152;48.728;9.256;2023-05-22T08:54:40;96780.03;;;26.21;74.68
12178;BME280;6152;48.728;9.256;2023-05-22T08:57:08;96778.44;;;25.92;78.00
12178;BME280;6152;48.728;9.256;2023-05-22T08:59:37;96780.34;;;25.70;80.53
12178;BME280;6152;48.728;9.256;2023-05-22T09:02:05;96789.22;;;25.77;82.95
12178;BME280;6152;48.728;9.256;2023-05-22T09:04:31;96780.66;;;25.54;83.58
12178;BME280;6152;48.728;9.256;2023-05-22T09:06:58;96789.97;;;25.65;84.07
12178;BME280;6152;48.728;9.256;2023-05-22T09:09:31;96773.16;;;26.46;78.14
12178;BME280;6152;48.728;9.256;2023-05-22T09:11:57;96769.78;;;27.90;66.75
12178;BME280;6152;48.728;9.256;2023-05-22T09:14:24;96776.44;;;29.95;56.91
12178;BME280;6152;48.728;9.256;2023-05-22T09:16:51;96773.06;;;31.02;51.32
12178;BME280;6152;48.728;9.256;2023-05-22T09:19:19;96763.97;;;32.42;46.63
12178;BME280;6152;48.728;9.256;2023-05-22T09:21:45;96765.13;;;33.98;41.58
12178;BME280;6152;48.728;9.256;2023-05-22T09:24:12;96753.41;;;35.01;38.35
12178;BME280;6152;48.728;9.256;2023-05-22T09:26:39;96751.78;;;35.95;36.72
12178;BME280;6152;48.728;9.256;2023-05-22T09:29:05;96751.00;;;35.31;35.67
12178;BME280;6152;48.728;9.256;2023-05-22T09:31:37;96754.13;;;35.18;36.46
12178;BME280;6152;48.728;9.256;2023-05-22T09:34:06;96756.25;;;36.17;34.67
12178;BME280;6152;48.728;9.256;2023-05-22T09:36:34;96751.28;;;36.56;33.65
12178;BME280;6152;48.728;9.256;2023-05-22T09:39:02;96743.22;;;36.81;32.96
12178;BME280;6152;48.728;9.256;2023-05-22T09:41:29;96745.47;;;36.32;33.03
12178;BME280;6152;48.728;9.256;2023-05-22T09:43:58;96745.91;;;36.86;33.31
12178;BME280;6152;48.728;9.256;2023-05-22T09:46:24;96752.16;;;38.28;32.08
12178;BME280;6152;48.728;9.256;2023-05-22T09:48:51;96738.91;;;38.06;30.06
12178;BME280;6152;48.728;9.256;2023-05-22T09:51:21;96739.97;;;36.79;31.99
12178;BME280;6152;48.728;9.256;2023-05-22T09:53:49;96739.50;;;37.63;30.79
12178;BME280;6152;48.728;9.256;2023-05-22T09:56:17;96740.88;;;38.65;29.62
12178;BME280;6152;48.728;9.256;2023-05-22T09:58:45;96739.44;;;39.21;28.18
12178;BME280;6152;48.728;9.256;2023-05-22T10:01:13;96731.16;;;38.49;28.76
12178;BME280;6152;48.728;9.256;2023-05-22T10:03:42;96740.66;;;36.49;30.65
12178;BME280;6152;48.728;9.256;2023-05-22T10:06:10;96736.28;;;37.51;30.93
12178;BME280;6152;48.728;9.256;2023-05-22T10:08:42;96740.38;;;38.58;28.51
12178;BME280;6152;48.728;9.256;2023-05-22T10:11:10;96738.31;;;38.19;28.61
12178;BME280;6152;48.728;9.256;2023-05-22T10:13:37;96735.97;;;37.92;29.06
12178;BME280;6152;48.728;9.256;2023-05-22T10:16:06;96730.66;;;38.96;28.02
12178;BME280;6152;48.728;9.256;2023-05-22T10:18:32;96728.72;;;39.35;27.39
12178;BME280;6152;48.728;9.256;2023-05-22T10:20:59;96726.97;;;40.73;26.27
12178;BME280;6152;48.728;9.256;2023-05-22T10:23:27;96723.53;;;41.56;26.04
12178;BME280;6152;48.728;9.256;2023-05-22T10:25:55;96724.03;;;40.88;25.40
12178;BME280;6152;48.728;9.256;2023-05-22T10:28:29;96728.81;;;40.16;26.21
12178;BME280;6152;48.728;9.256;2023-05-22T10:31:04;96720.03;;;41.37;24.69
12178;BME280;6152;48.728;9.256;2023-05-22T10:33:46;96719.38;;;41.91;24.10
12178;BME280;6152;48.728;9.256;2023-05-22T10:36:30;96721.91;;;42.01;23.88
12178;BME280;6152;48.728;9.256;2023-05-22T10:41:46;96714.44;;;42.61;23.62
12178;BME280;6152;48.728;9.256;2023-05-22T10:44:13;96710.47;;;42.67;24.01
12178;BME280;6152;48.728;9.256;2023-05-22T10:46:39;96710.00;;;43.45;22.87
12178;BME280;6152;48.728;9.256;2023-05-22T10:49:05;96699.44;;;42.94;23.06
12178;BME280;6152;48.728;9.256;2023-05-22T10:51:31;96697.34;;;41.36;24.47
12178;BME280;6152;48.728;9.256;2023-05-22T10:54:00;96701.75;;;42.38;24.03
12178;BME280;6152;48.728;9.256;2023-05-22T10:56:37;96691.50;;;41.75;24.14
12178;BME280;6152;48.728;9.256;2023-05-22T10:59:04;96692.53;;;39.87;25.58
12178;BME280;6152;48.728;9.256;2023-05-22T11:01:32;96682.94;;;41.49;25.11
12178;BME280;6152;48.728;9.256;2023-05-22T11:06:48;96690.69;;;39.54;25.52
12178;BME280;6152;48.728;9.256;2023-05-22T11:09:33;96686.09;;;38.22;27.44
12178;BME280;6152;48.728;9.256;2023-05-22T11:14:57;96678.97;;;40.29;26.30
12178;BME280;6152;48.728;9.256;2023-05-22T11:17:28;96671.78;;;40.76;24.70
12178;BME280;6152;48.728;9.256;2023-05-22T11:20:10;96669.34;;;40.93;25.17
12178;BME280;6152;48.728;9.256;2023-05-22T11:22:40;96672.38;;;41.10;25.88
12178;BME280;6152;48.728;9.256;2023-05-22T11:25:15;96678.47;;;41.86;23.64
12178;BME280;6152;48.728;9.256;2023-05-22T11:27:41;96667.94;;;41.14;24.08
12178;BME280;6152;48.728;9.256;2023-05-22T11:30:09;96662.75;;;40.19;25.42
12178;BME280;6152;48.728;9.256;2023-05-22T11:32:37;96655.84;;;40.83;24.18
12178;BME280;6152;48.728;9.256;2023-05-22T11:35:04;96651.72;;;40.67;24.71
12178;BME280;6152;48.728;9.256;2023-05-22T11:37:31;96645.88;;;40.92;24.14
12178;BME280;6152;48.728;9.256;2023-05-22T11:40:02;96655.31;;;41.51;24.21
12178;BME280;6152;48.728;9.256;2023-05-22T11:42:29;96653.41;;;41.65;23.63
12178;BME280;6152;48.728;9.256;2023-05-22T11:44:55;96648.41;;;39.85;25.03
12178;BME280;6152;48.728;9.256;2023-05-22T11:47:23;96648.13;;;38.61;25.80
12178;BME280;6152;48.728;9.256;2023-05-22T11:49:49;96634.38;;;38.32;25.86
12178;BME280;6152;48.728;9.256;2023-05-22T11:52:16;96640.31;;;37.65;27.26
12178;BME280;6152;48.728;9.256;2023-05-22T11:54:46;96631.53;;;38.04;26.17
12178;BME280;6152;48.728;9.256;2023-05-22T11:57:12;96630.56;;;38.38;26.72
12178;BME280;6152;48.728;9.256;2023-05-22T11:59:39;96631.19;;;38.15;27.51
12178;BME280;6152;48.728;9.256;2023-05-22T12:02:08;96631.44;;;39.07;27.42
12178;BME280;6152;48.728;9.256;2023-05-22T12:04:36;96628.75;;;38.63;26.65
12178;BME280;6152;48.728;9.256;2023-05-22T12:07:02;96631.16;;;36.90;28.28
12178;BME280;6152;48.728;9.256;2023-05-22T12:09:28;96622.09;;;36.19;28.90
12178;BME280;6152;48.728;9.256;2023-05-22T12:11:55;96623.16;;;36.13;29.93
12178;BME280;6152;48.728;9.256;2023-05-22T12:14:26;96626.59;;;34.78;31.44
12178;BME280;6152;48.728;9.256;2023-05-22T12:16:53;96625.09;;;33.90;32.95
12178;BME280;6152;48.728;9.256;2023-05-22T12:19:20;96620.66;;;33.07;34.84
12178;BME280;6152;48.728;9.256;2023-05-22T12:21:50;96617.31;;;32.38;35.71
12178;BME280;6152;48.728;9.256;2023-05-22T12:24:16;96620.06;;;31.87;36.93
12178;BME280;6152;48.728;9.256;2023-05-22T12:26:52;96623.53;;;31.47;38.69
12178;BME280;6152;48.728;9.256;2023-05-22T12:29:20;96627.91;;;30.61;38.95
12178;BME280;6152;48.728;9.256;2023-05-22T12:31:47;96627.13;;;30.12;40.03
12178;BME280;6152;48.728;9.256;2023-05-22T12:34:14;96633.75;;;29.62;42.38
12178;BME280;6152;48.728;9.256;2023-05-22T12:36:43;96642.88;;;29.36;40.41
12178;BME280;6152;48.728;9.256;2023-05-22T12:39:20;96643.00;;;28.98;42.97
12178;BME280;6152;48.728;9.256;2023-05-22T12:41:47;96641.56;;;28.39;41.16
12178;BME280;6152;48.728;9.256;2023-05-22T12:44:15;96638.09;;;28.32;42.07
12178;BME280;6152;48.728;9.256;2023-05-22T12:46:41;96639.13;;;28.31;43.57
12178;BME280;6152;48.728;9.256;2023-05-22T12:49:07;96652.19;;;28.52;47.08
12178;BME280;6152;48.728;9.256;2023-05-22T12:51:34;96654.19;;;28.64;44.05
12178;BME280;6152;48.728;9.256;2023-05-22T12:54:04;96645.94;;;28.58;45.14
12178;BME280;6152;48.728;9.256;2023-05-22T12:56:31;96639.31;;;28.36;43.88
12178;BME280;6152;48.728;9.256;2023-05-22T12:58:57;96641.34;;;27.96;44.46
12178;BME280;6152;48.728;9.256;2023-05-22T13:01:24;96640.78;;;27.88;45.34
12178;BME280;6152;48.728;9.256;2023-05-22T13:03:51;96634.44;;;27.76;44.85
12178;BME280;6152;48.728;9.256;2023-05-22T13:06:17;96628.31;;;27.75;43.23
12178;BME280;6152;48.728;9.256;2023-05-22T13:08:44;96629.47;;;27.86;42.18
12178;BME280;6152;48.728;9.256;2023-05-22T13:11:13;96633.13;;;27.98;42.36
12178;BME280;6152;48.728;9.256;2023-05-22T13:13:39;96618.88;;;28.10;43.85
12178;BME280;6152;48.728;9.256;2023-05-22T13:16:05;96621.94;;;28.14;42.70
12178;BME280;6152;48.728;9.256;2023-05-22T13:18:31;96611.34;;;27.88;44.47
12178;BME280;6152;48.728;9.256;2023-05-22T13:20:57;96603.09;;;27.89;46.12
12178;BME280;6152;48.728;9.256;2023-05-22T13:23:25;96607.97;;;28.05;46.13
12178;BME280;6152;48.728;9.256;2023-05-22T13:25:51;96611.28;;;28.07;45.67
12178;BME280;6152;48.728;9.256;2023-05-22T13:28:17;96611.66;;;28.11;49.20
12178;BME280;6152;48.728;9.256;2023-05-22T13:30:43;96616.53;;;28.21;48.93
12178;BME280;6152;48.728;9.256;2023-05-22T13:33:09;96610.66;;;28.43;50.58
12178;BME280;6152;48.728;9.256;2023-05-22T13:35:36;96621.19;;;28.38;48.72